createdAt,value
2023-05-20T00:03:47.829Z,6.28
2023-05-20T00:07:50.653Z,3.33
2023-05-20T00:11:54.767Z,6.95
2023-05-20T00:15:57.447Z,4.88
2023-05-20T00:20:00.720Z,1.70
2023-05-20T00:24:03.433Z,2.80
2023-05-20T00:28:07.722Z,2.10
2023-05-20T00:32:10.658Z,3.42
2023-05-20T00:36:13.430Z,2.03
2023-05-20T00:40:16.167Z,3.50
2023-05-20T00:44:23.993Z,2.95
2023-05-20T00:48:26.705Z,2.50
2023-05-20T00:52:31.240Z,4.38
2023-05-20T00:56:33.937Z,3.60
2023-05-20T01:00:38.266Z,2.67
2023-05-20T01:04:41.845Z,3.50
2023-05-20T01:08:44.464Z,4.03
2023-05-20T01:12:50.835Z,4.07
2023-05-20T01:16:55.200Z,1.85
2023-05-20T01:21:01.552Z,3.33
2023-05-20T01:25:06.396Z,3.15
2023-05-20T01:29:09.076Z,6.97
2023-05-20T01:33:12.773Z,2.25
2023-05-20T01:37:16.147Z,2.58
2023-05-20T01:45:24.441Z,3.30
2023-05-20T01:49:27.110Z,3.60
2023-05-20T01:53:30.352Z,2.25
2023-05-20T01:57:34.411Z,4.85
2023-05-20T02:01:37.165Z,3.63
2023-05-20T02:05:39.945Z,3.85
2023-05-20T02:09:42.691Z,3.25
2023-05-20T02:13:46.737Z,3.35
2023-05-20T02:17:49.449Z,3.35
2023-05-20T02:21:52.537Z,2.55
2023-05-20T02:25:55.263Z,3.80
2023-05-20T02:29:59.501Z,5.13
2023-05-20T02:34:02.386Z,5.03
2023-05-20T02:38:05.169Z,4.25
2023-05-20T02:42:07.842Z,5.05
2023-05-20T02:46:12.067Z,3.10
2023-05-20T02:50:14.751Z,4.80
2023-05-20T02:54:17.524Z,2.80
2023-05-20T02:58:26.444Z,4.07
2023-05-20T03:02:30.647Z,4.82
2023-05-20T03:06:33.935Z,4.45
2023-05-20T03:10:36.638Z,4.85
2023-05-20T03:14:39.297Z,3.85
2023-05-20T03:18:43.603Z,3.33
2023-05-20T03:22:46.242Z,4.05
2023-05-20T03:26:49.070Z,3.30
2023-05-20T03:30:51.802Z,4.07
2023-05-20T03:34:58.159Z,4.00
2023-05-20T03:39:01.776Z,3.45
2023-05-20T03:43:04.417Z,4.97
2023-05-20T03:47:07.140Z,6.97
2023-05-20T03:51:11.348Z,3.05
2023-05-20T03:55:14.020Z,7.95
2023-05-20T03:59:17.891Z,4.53
2023-05-20T04:03:20.632Z,5.53
2023-05-20T04:07:24.733Z,4.32
2023-05-20T04:11:27.492Z,3.85
2023-05-20T04:15:30.804Z,6.97
2023-05-20T04:19:34.790Z,4.70
2023-05-20T04:23:38.836Z,3.22
2023-05-20T04:27:41.550Z,4.53
2023-05-20T04:31:45.559Z,3.55
2023-05-20T04:35:48.567Z,2.65
2023-05-20T04:39:52.605Z,4.93
2023-05-20T04:43:59.778Z,3.50
2023-05-20T04:48:02.546Z,3.63
2023-05-20T04:52:05.815Z,3.50
2023-05-20T04:56:09.966Z,4.68
2023-05-20T05:00:13.663Z,2.75
2023-05-20T05:04:16.401Z,4.88
2023-05-20T05:08:19.061Z,4.32
2023-05-20T05:12:23.234Z,5.97
2023-05-20T05:16:26.093Z,3.95
2023-05-20T05:20:28.897Z,4.22
2023-05-20T05:24:31.638Z,5.30
2023-05-20T05:28:35.669Z,5.28
2023-05-20T05:32:38.603Z,4.75
2023-05-20T05:36:41.865Z,5.72
2023-05-20T05:40:44.532Z,5.18
2023-05-20T05:44:49.453Z,3.30
2023-05-20T05:48:52.314Z,5.55
2023-05-20T05:52:55.114Z,5.95
2023-05-20T05:56:57.862Z,5.60
2023-05-20T06:01:02.030Z,5.00
2023-05-20T06:05:05.064Z,5.03
2023-05-20T06:09:07.749Z,6.00
2023-05-20T06:13:10.473Z,6.95
2023-05-20T06:17:14.560Z,7.90
2023-05-20T06:21:17.706Z,5.45
2023-05-20T06:25:20.389Z,5.63
2023-05-20T06:29:23.155Z,5.68
2023-05-20T06:33:28.572Z,4.85
2023-05-20T06:37:31.723Z,3.50
2023-05-20T06:41:34.438Z,3.60
2023-05-20T06:45:37.147Z,3.78
2023-05-20T06:49:41.152Z,5.78
2023-05-20T06:53:43.812Z,3.97
2023-05-20T06:57:46.481Z,6.38
2023-05-20T07:01:49.213Z,5.00
2023-05-20T07:05:53.981Z,6.80
2023-05-20T07:09:56.643Z,3.88
2023-05-20T07:13:59.334Z,5.90
2023-05-20T07:18:02.148Z,5.88
2023-05-20T07:22:06.538Z,3.53
2023-05-20T07:26:09.221Z,3.90
2023-05-20T07:30:12.143Z,2.63
2023-05-20T07:34:14.807Z,6.35
2023-05-20T07:38:18.811Z,7.40
2023-05-20T07:42:21.546Z,3.88
2023-05-20T07:46:24.330Z,5.35
2023-05-20T07:50:27.153Z,4.50
2023-05-20T07:54:31.208Z,4.63
2023-05-20T07:58:33.894Z,5.35
2023-05-20T08:02:36.683Z,6.35
2023-05-20T08:06:39.818Z,6.00
2023-05-20T08:10:43.895Z,6.95
2023-05-20T08:14:46.556Z,5.57
2023-05-20T08:18:49.316Z,4.82
2023-05-20T08:22:52.030Z,4.45
2023-05-20T08:26:56.026Z,6.13
2023-05-20T08:30:59.366Z,3.45
2023-05-20T08:35:02.742Z,5.50
2023-05-20T08:39:05.391Z,7.60
2023-05-20T08:43:09.510Z,4.65
2023-05-20T08:47:12.362Z,4.32
2023-05-20T08:55:22.980Z,5.30
2023-05-20T08:59:27.473Z,5.93
2023-05-20T09:03:30.568Z,7.80
2023-05-20T09:07:33.599Z,4.07
2023-05-20T09:11:36.482Z,3.65
2023-05-20T09:19:43.599Z,5.60
2023-05-20T09:23:49.159Z,5.50
2023-05-20T09:27:51.838Z,3.53
2023-05-20T09:36:04.671Z,4.00
2023-05-20T09:40:10.184Z,8.05
2023-05-20T09:44:13.769Z,4.45
2023-05-20T09:48:17.831Z,4.35
2023-05-20T09:52:21.640Z,4.38
2023-05-20T09:56:25.189Z,4.10
2023-05-20T10:00:27.972Z,4.75
2023-05-20T10:04:32.502Z,6.15
2023-05-20T10:08:55.768Z,4.35
2023-05-20T10:13:09.238Z,16.02
2023-05-20T10:17:16.959Z,4.28
2023-05-20T10:21:24.534Z,5.15
2023-05-20T10:25:29.293Z,4.75
2023-05-20T10:29:43.656Z,5.85
2023-05-20T10:33:47.461Z,4.50
2023-05-20T10:37:51.518Z,4.05
2023-05-20T10:41:54.298Z,6.00
2023-05-20T10:50:02.090Z,5.60
2023-05-20T10:54:06.461Z,4.90
2023-05-20T10:58:09.149Z,6.63
2023-05-20T11:06:17.574Z,3.67
2023-05-20T11:10:24.001Z,4.57
2023-05-20T11:14:26.680Z,4.97
2023-05-20T11:22:34.722Z,4.18
2023-05-20T11:26:39.381Z,5.50
2023-05-20T11:30:43.946Z,6.68
2023-05-20T11:34:46.791Z,2.97
2023-05-20T11:38:49.475Z,3.90
2023-05-20T11:42:56.257Z,5.28
2023-05-20T11:47:01.409Z,4.97
2023-05-20T11:51:04.314Z,8.02
2023-05-20T11:55:11.852Z,6.90
2023-05-20T11:59:18.578Z,4.78
2023-05-20T12:03:21.850Z,4.93
2023-05-20T12:07:24.798Z,5.28
2023-05-20T12:15:31.416Z,3.75
2023-05-20T12:19:36.041Z,5.05
2023-05-20T12:23:39.608Z,7.90
2023-05-20T12:27:42.377Z,5.93
2023-05-20T12:31:46.462Z,6.38
2023-05-20T12:35:49.241Z,5.80
2023-05-20T12:43:55.261Z,5.55
2023-05-20T12:47:59.623Z,7.00
2023-05-20T12:52:05.761Z,7.57
2023-05-20T12:56:11.570Z,5.47
2023-05-20T13:04:18.875Z,13.18
2023-05-20T13:08:21.537Z,6.47
2023-05-20T13:16:27.278Z,18.85
2023-05-20T13:20:32.084Z,8.00
2023-05-20T13:24:35.062Z,6.32
2023-05-20T13:28:37.755Z,6.07
2023-05-20T13:32:40.520Z,4.78
2023-05-20T13:36:45.329Z,4.22
2023-05-20T13:40:48.971Z,7.15
2023-05-20T13:44:51.699Z,4.13
2023-05-20T13:48:54.437Z,4.78
2023-05-20T13:52:58.482Z,20.17
2023-05-20T13:57:01.708Z,23.10
2023-05-20T14:01:04.953Z,20.13
2023-05-20T14:05:08.774Z,7.60
2023-05-20T14:09:12.817Z,6.63
2023-05-20T14:13:15.520Z,6.00
2023-05-20T14:21:21.732Z,6.30
2023-05-20T14:29:28.451Z,7.93
2023-05-20T14:37:33.794Z,8.20
2023-05-20T14:41:37.806Z,6.13
2023-05-20T14:45:41.533Z,5.97
2023-05-20T14:49:44.611Z,4.72
2023-05-20T14:53:47.272Z,5.25
2023-05-20T14:57:51.275Z,9.75
2023-05-20T15:01:54.370Z,5.20
2023-05-20T15:05:57.046Z,9.32
2023-05-20T15:09:59.800Z,7.72
2023-05-20T15:14:03.823Z,7.03
2023-05-20T15:18:06.605Z,8.32
2023-05-20T15:22:09.358Z,7.45
2023-05-20T15:26:12.930Z,6.30
2023-05-20T15:30:17.318Z,5.57
2023-05-20T15:34:20.204Z,6.22
2023-05-20T15:38:22.933Z,6.00
2023-05-20T15:46:29.858Z,8.90
2023-05-20T15:50:32.657Z,8.48
2023-05-20T15:54:35.549Z,6.97
2023-05-20T16:02:43.398Z,5.47
2023-05-20T16:06:46.211Z,6.80
2023-05-20T16:10:48.885Z,7.47
2023-05-20T16:14:51.677Z,6.50
2023-05-20T16:18:55.921Z,12.68
2023-05-20T16:22:58.818Z,6.97
2023-05-20T16:31:04.359Z,9.15
2023-05-20T16:35:09.741Z,5.70
2023-05-20T16:39:12.834Z,7.93
2023-05-20T16:43:15.562Z,8.23
2023-05-20T16:47:18.411Z,7.82
2023-05-20T16:51:22.845Z,6.78
2023-05-20T16:55:25.616Z,10.25
2023-05-20T16:59:30.283Z,6.60
2023-05-20T17:03:33.003Z,8.40
2023-05-20T17:07:37.126Z,7.80
2023-05-20T17:11:39.778Z,9.57
2023-05-20T17:15:42.496Z,8.63
2023-05-20T17:19:45.292Z,7.47
2023-05-20T17:23:49.406Z,7.03
2023-05-20T17:27:52.128Z,6.78
2023-05-20T17:31:54.806Z,7.43
2023-05-20T17:35:57.554Z,7.10
2023-05-20T17:40:01.711Z,6.97
2023-05-20T17:44:04.738Z,9.10
2023-05-20T17:52:13.513Z,9.63
2023-05-20T17:56:17.795Z,8.40
2023-05-20T18:00:21.722Z,9.30
2023-05-20T18:04:24.440Z,6.45
2023-05-20T18:08:27.085Z,9.05
2023-05-20T18:12:31.131Z,10.52
2023-05-20T18:16:33.865Z,8.75
2023-05-20T18:20:36.890Z,9.13
2023-05-20T18:24:39.677Z,8.05
2023-05-20T18:28:43.831Z,7.28
2023-05-20T18:32:46.599Z,7.72
2023-05-20T18:36:49.520Z,10.45
2023-05-20T18:40:52.248Z,8.38
2023-05-20T18:44:56.283Z,8.43
2023-05-20T18:48:58.996Z,8.43
2023-05-20T18:53:01.718Z,9.27
2023-05-20T18:57:05.271Z,9.07
2023-05-20T19:01:09.319Z,7.93
2023-05-20T19:05:13.626Z,9.38
2023-05-20T19:09:16.507Z,11.40
2023-05-20T19:13:19.239Z,9.07
2023-05-20T19:17:23.208Z,7.72
2023-05-20T19:21:26.058Z,8.95
2023-05-20T19:25:28.778Z,7.82
2023-05-20T19:29:31.617Z,10.70
2023-05-20T19:33:35.658Z,10.20
2023-05-20T19:37:38.390Z,9.48
2023-05-20T19:41:41.058Z,9.90
2023-05-20T19:45:44.024Z,8.48
2023-05-20T19:49:48.064Z,8.65
2023-05-20T19:53:51.072Z,8.68
2023-05-20T19:57:54.066Z,8.02
2023-05-20T20:01:56.795Z,8.15
2023-05-20T20:06:01.050Z,8.55
2023-05-20T20:10:03.911Z,11.38
2023-05-20T20:14:06.573Z,8.93
2023-05-20T20:18:09.311Z,7.57
2023-05-20T20:22:13.560Z,11.32
2023-05-20T20:26:16.220Z,10.40
2023-05-20T20:30:21.428Z,8.82
2023-05-20T20:34:24.236Z,10.82
2023-05-20T20:38:28.581Z,10.02
2023-05-20T20:42:32.296Z,8.50
2023-05-20T20:46:37.500Z,12.77
2023-05-20T20:50:40.207Z,11.80
2023-05-20T20:54:44.204Z,12.00
2023-05-20T20:58:46.855Z,8.85
2023-05-20T21:02:49.613Z,8.68
2023-05-20T21:06:52.290Z,12.88
2023-05-20T21:10:59.108Z,11.48
2023-05-20T21:15:02.002Z,13.70
2023-05-20T21:19:04.754Z,13.25
2023-05-20T21:23:07.426Z,11.18
2023-05-20T21:27:11.446Z,11.82
2023-05-20T21:31:14.248Z,9.80
2023-05-20T21:35:17.217Z,11.60
2023-05-20T21:39:19.830Z,8.43
2023-05-20T21:43:23.851Z,10.48
2023-05-20T21:47:26.565Z,12.55
2023-05-20T21:51:29.219Z,11.30
2023-05-20T21:55:31.895Z,11.00
2023-05-20T21:59:35.969Z,9.43
2023-05-20T22:03:39.836Z,11.77
2023-05-20T22:07:44.303Z,11.18
2023-05-20T22:11:47.936Z,11.77
2023-05-20T22:15:52.696Z,11.02
2023-05-20T22:19:55.371Z,10.80
2023-05-20T22:23:57.989Z,8.38
2023-05-20T22:28:01.403Z,8.50
2023-05-20T22:32:06.384Z,16.13
2023-05-20T22:36:09.427Z,11.80
2023-05-20T22:40:12.650Z,9.93
2023-05-20T22:48:22.894Z,10.52
2023-05-20T22:52:25.934Z,11.52
2023-05-20T22:56:29.632Z,15.63
2023-05-20T23:00:32.304Z,13.20
2023-05-20T23:04:36.449Z,13.68
2023-05-20T23:08:39.186Z,13.60
2023-05-20T23:12:41.821Z,18.98
2023-05-20T23:16:44.504Z,10.55
2023-05-20T23:20:48.678Z,11.00
2023-05-20T23:24:51.568Z,12.13
2023-05-20T23:28:54.322Z,15.77
2023-05-20T23:32:57.835Z,13.15
2023-05-20T23:37:01.891Z,12.00
2023-05-20T23:41:04.800Z,15.32
2023-05-20T23:45:08.280Z,17.02
2023-05-20T23:49:12.219Z,11.75
2023-05-20T23:53:17.035Z,15.65
2023-05-20T23:57:19.956Z,17.08
